Neptune Antlia — S6BE — position and weather

sailwx.info

Track history (hours):
 
Tides and Currents Weather Stations Pressure Air Temp Water Temp Dewpoint Dewpoint Depression Visibility Wind Speed Wind Dir Waves Ship Positions

Neptune Antlia

Last reported at 2017-Apr-24 01:42 UTC. Time now 2017-May-27 00:27 UTC.
Position S 23°05' W 042°44'.
Warning: this ship's position is 32 days out of date.

Type: Cargo ship. MMSI: 563737000.

Date/timePositionNaut miles runAvg speedWind from/ knotsBaromVisibWave heightAir tempDewpointWater temp
2017-Apr-24 01:42S 23°05' W 042°44'314.4
2017-Apr-24 01:30S 23°04' W 042°47'714.4
2017-Apr-24 01:00S 23°04' W 042°55'714.0
2017-Apr-24 00:30S 23°02' W 043°02'612.7
2017-Apr-24 00:00S 22°58' W 043°08'510.0
2017-Apr-23 23:30S 22°54' W 043°09'1 1.6
2017-Apr-23 23:00S 22°53' W 043°10'0 0.1
2017-Apr-23 22:30S 22°53' W 043°10'0 0.0
2017-Apr-23 22:00S 22°53' W 043°10'0 0.1
2017-Apr-23 21:24S 22°53' W 043°10'0 0.0
2017-Apr-23 21:00S 22°53' W 043°10'0 0.0
2017-Apr-23 20:24S 22°53' W 043°10'0 0.0
2017-Apr-23 19:54S 22°53' W 043°10'0 0.0
2017-Apr-23 19:18S 22°53' W 043°10'0 0.0
2017-Apr-23 18:05S 22°53' W 043°10'0 0.2
2017-Apr-23 17:59S 22°53' W 043°10'0 0.1
2017-Apr-23 15:35S 22°53' W 043°10'0 0.0
2017-Apr-23 09:53S 22°53' W 043°10'0 0.0
2017-Apr-23 09:29S 22°53' W 043°10'0 0.0
2017-Apr-23 08:17S 22°53' W 043°10'0 0.1
2017-Apr-23 07:47S 22°53' W 043°10'0 0.0
2017-Apr-23 07:17S 22°53' W 043°10'0 0.0
2017-Apr-23 06:59S 22°53' W 043°10'0 0.0
2017-Apr-23 06:23S 22°53' W 043°10'0 0.5
2017-Apr-23 06:00S 22°53' W 043°09'3 6.3
2017-Apr-23 05:30S 22°56' W 043°08'3 6.5
2017-Apr-23 05:00S 22°59' W 043°08'3 5.6
2017-Apr-23 04:30S 23°02' W 043°10'4 9.0
2017-Apr-23 04:00S 23°06' W 043°11'5 8.8
2017-Apr-23 03:29S 23°10' W 043°14'6 8.7
2017-Apr-23 02:46S 23°15' W 043°18'  
2017-Apr-19 08:16S 34°49' W 057°28'413.2
2017-Apr-19 08:00S 34°47' W 057°31'613.3
2017-Apr-19 07:30S 34°45' W 057°39'713.5
2017-Apr-19 06:57S 34°44' W 057°48'813.8
2017-Apr-19 06:25S 34°41' W 057°57'410.1
2017-Apr-19 06:01S 34°37' W 057°57'611.2
2017-Apr-19 05:30S 34°32' W 057°56'510.3
2017-Apr-19 05:00S 34°27' W 057°57'510.9
2017-Apr-19 04:30S 34°22' W 058°00'611.6
2017-Apr-19 04:00S 34°17' W 058°03'  
Track history (hours):
 
Tides and Currents Weather Stations Pressure Air Temp Water Temp Dewpoint Dewpoint Depression Visibility Wind Speed Wind Dir Waves Ship Positions

Neptune Antlia

Last reported at 2017-Apr-24 01:42 UTC. Time now 2017-May-27 00:27 UTC.
Position S 23°05' W 042°44'.
Warning: this ship's position is 32 days out of date.

Type: Cargo ship. MMSI: 563737000.

Date/timePositionNaut miles runAvg speedWind from/ knotsBaromVisibWave heightAir tempDewpointWater temp
2017-Apr-24 01:42S 23°05' W 042°44'314.4
2017-Apr-24 01:30S 23°04' W 042°47'714.4
2017-Apr-24 01:00S 23°04' W 042°55'714.0
2017-Apr-24 00:30S 23°02' W 043°02'612.7
2017-Apr-24 00:00S 22°58' W 043°08'510.0
2017-Apr-23 23:30S 22°54' W 043°09'1 1.6
2017-Apr-23 23:00S 22°53' W 043°10'0 0.1
2017-Apr-23 22:30S 22°53' W 043°10'0 0.0
2017-Apr-23 22:00S 22°53' W 043°10'0 0.1
2017-Apr-23 21:24S 22°53' W 043°10'0 0.0
2017-Apr-23 21:00S 22°53' W 043°10'0 0.0
2017-Apr-23 20:24S 22°53' W 043°10'0 0.0
2017-Apr-23 19:54S 22°53' W 043°10'0 0.0
2017-Apr-23 19:18S 22°53' W 043°10'0 0.0
2017-Apr-23 18:05S 22°53' W 043°10'0 0.2
2017-Apr-23 17:59S 22°53' W 043°10'0 0.1
2017-Apr-23 15:35S 22°53' W 043°10'0 0.0
2017-Apr-23 09:53S 22°53' W 043°10'0 0.0
2017-Apr-23 09:29S 22°53' W 043°10'0 0.0
2017-Apr-23 08:17S 22°53' W 043°10'0 0.1
2017-Apr-23 07:47S 22°53' W 043°10'0 0.0
2017-Apr-23 07:17S 22°53' W 043°10'0 0.0
2017-Apr-23 06:59S 22°53' W 043°10'0 0.0
2017-Apr-23 06:23S 22°53' W 043°10'0 0.5
2017-Apr-23 06:00S 22°53' W 043°09'3 6.3
2017-Apr-23 05:30S 22°56' W 043°08'3 6.5
2017-Apr-23 05:00S 22°59' W 043°08'3 5.6
2017-Apr-23 04:30S 23°02' W 043°10'4 9.0
2017-Apr-23 04:00S 23°06' W 043°11'5 8.8
2017-Apr-23 03:29S 23°10' W 043°14'6 8.7
2017-Apr-23 02:46S 23°15' W 043°18'  
2017-Apr-19 08:16S 34°49' W 057°28'413.2
2017-Apr-19 08:00S 34°47' W 057°31'613.3
2017-Apr-19 07:30S 34°45' W 057°39'713.5
2017-Apr-19 06:57S 34°44' W 057°48'813.8
2017-Apr-19 06:25S 34°41' W 057°57'410.1
2017-Apr-19 06:01S 34°37' W 057°57'611.2
2017-Apr-19 05:30S 34°32' W 057°56'510.3
2017-Apr-19 05:00S 34°27' W 057°57'510.9
2017-Apr-19 04:30S 34°22' W 058°00'611.6
2017-Apr-19 04:00S 34°17' W 058°03'  

Dump ship's entire track history